sensor_id;sensor_type;location;lat;lon;timestamp;pressure;altitude;pressure_sealevel;temperature;humidity
61571;BME280;47463;49.884;10.010;2023-03-12T00:00:01;101720;;;-2.8;86
61571;BME280;47463;49.884;10.010;2023-03-12T00:05:01;101720;;;-2.9;85
61571;BME280;47463;49.884;10.010;2023-03-12T00:10:01;101710;;;-2.9;86
61571;BME280;47463;49.884;10.010;2023-03-12T00:15:01;101710;;;-3.1;86
61571;BME280;47463;49.884;10.010;2023-03-12T00:20:01;101710;;;-3;86
61571;BME280;47463;49.884;10.010;2023-03-12T00:25:01;101710;;;-3.1;86
61571;BME280;47463;49.884;10.010;2023-03-12T00:30:01;101720;;;-3;87
61571;BME280;47463;49.884;10.010;2023-03-12T00:35:01;101720;;;-3.1;87
61571;BME280;47463;49.884;10.010;2023-03-12T00:40:01;101720;;;-3.2;87
61571;BME280;47463;49.884;10.010;2023-03-12T00:45:01;101730;;;-3.2;87
61571;BME280;47463;49.884;10.010;2023-03-12T00:50:01;101730;;;-3.2;87
61571;BME280;47463;49.884;10.010;2023-03-12T00:55:01;101730;;;-3.1;87
61571;BME280;47463;49.884;10.010;2023-03-12T01:00:01;101720;;;-3.2;87
61571;BME280;47463;49.884;10.010;2023-03-12T01:05:01;101720;;;-3.2;88
61571;BME280;47463;49.884;10.010;2023-03-12T01:10:01;101730;;;-3.1;88
61571;BME280;47463;49.884;10.010;2023-03-12T01:15:01;101710;;;-3.1;87
61571;BME280;47463;49.884;10.010;2023-03-12T01:20:01;101710;;;-3.2;87
61571;BME280;47463;49.884;10.010;2023-03-12T01:25:01;101710;;;-3;86
61571;BME280;47463;49.884;10.010;2023-03-12T01:30:01;101700;;;-2.9;86
61571;BME280;47463;49.884;10.010;2023-03-12T01:35:01;101700;;;-2.8;86
61571;BME280;47463;49.884;10.010;2023-03-12T01:40:01;101710;;;-2.9;86
61571;BME280;47463;49.884;10.010;2023-03-12T01:45:01;101710;;;-3;87
61571;BME280;47463;49.884;10.010;2023-03-12T01:50:01;101710;;;-3;87
61571;BME280;47463;49.884;10.010;2023-03-12T01:55:02;101710;;;-3.1;87
61571;BME280;47463;49.884;10.010;2023-03-12T02:00:02;101720;;;-2.9;87
61571;BME280;47463;49.884;10.010;2023-03-12T02:05:02;101710;;;-2.9;88
61571;BME280;47463;49.884;10.010;2023-03-12T02:10:01;101710;;;-2.9;88
61571;BME280;47463;49.884;10.010;2023-03-12T02:15:01;101710;;;-2.9;89
61571;BME280;47463;49.884;10.010;2023-03-12T02:20:03;101720;;;-2.9;89
61571;BME280;47463;49.884;10.010;2023-03-12T02:25:02;101710;;;-2.8;89
61571;BME280;47463;49.884;10.010;2023-03-12T02:30:01;101720;;;-2.8;89
61571;BME280;47463;49.884;10.010;2023-03-12T02:35:01;101720;;;-2.8;89
61571;BME280;47463;49.884;10.010;2023-03-12T02:40:02;101720;;;-2.8;89
61571;BME280;47463;49.884;10.010;2023-03-12T02:45:01;101710;;;-2.7;90
61571;BME280;47463;49.884;10.010;2023-03-12T02:50:01;101710;;;-2.6;90
61571;BME280;47463;49.884;10.010;2023-03-12T02:55:01;101710;;;-2.7;90
61571;BME280;47463;49.884;10.010;2023-03-12T03:00:01;101700;;;-2.7;90
61571;BME280;47463;49.884;10.010;2023-03-12T03:05:01;101710;;;-2.7;90
61571;BME280;47463;49.884;10.010;2023-03-12T03:10:01;101710;;;-2.7;91
61571;BME280;47463;49.884;10.010;2023-03-12T03:15:01;101710;;;-2.7;91
61571;BME280;47463;49.884;10.010;2023-03-12T03:20:01;101710;;;-2.6;91
61571;BME280;47463;49.884;10.010;2023-03-12T03:25:01;101710;;;-2.6;92
61571;BME280;47463;49.884;10.010;2023-03-12T03:30:01;101720;;;-2.5;91
61571;BME280;47463;49.884;10.010;2023-03-12T03:35:01;101700;;;-2.6;90
61571;BME280;47463;49.884;10.010;2023-03-12T03:40:01;101710;;;-2.6;90
61571;BME280;47463;49.884;10.010;2023-03-12T03:45:01;101720;;;-2.6;90
61571;BME280;47463;49.884;10.010;2023-03-12T03:50:01;101710;;;-2.6;90
61571;BME280;47463;49.884;10.010;2023-03-12T03:55:01;101710;;;-2.5;91
61571;BME280;47463;49.884;10.010;2023-03-12T04:00:01;101700;;;-2.5;92
61571;BME280;47463;49.884;10.010;2023-03-12T04:05:01;101700;;;-2.5;91
61571;BME280;47463;49.884;10.010;2023-03-12T04:10:01;101710;;;-2.4;90
61571;BME280;47463;49.884;10.010;2023-03-12T04:15:01;101700;;;-2.3;90
61571;BME280;47463;49.884;10.010;2023-03-12T04:20:01;101710;;;-2.3;91
61571;BME280;47463;49.884;10.010;2023-03-12T04:25:01;101700;;;-2.3;91
61571;BME280;47463;49.884;10.010;2023-03-12T04:30:01;101700;;;-2.3;91
61571;BME280;47463;49.884;10.010;2023-03-12T04:35:01;101700;;;-2.4;91
61571;BME280;47463;49.884;10.010;2023-03-12T04:40:01;101690;;;-2.5;91
61571;BME280;47463;49.884;10.010;2023-03-12T04:45:01;101690;;;-2.5;92
61571;BME280;47463;49.884;10.010;2023-03-12T04:50:01;101690;;;-2.4;92
61571;BME280;47463;49.884;10.010;2023-03-12T04:55:01;101690;;;-2.3;90
61571;BME280;47463;49.884;10.010;2023-03-12T05:00:01;101680;;;-2.1;88
61571;BME280;47463;49.884;10.010;2023-03-12T05:05:01;101690;;;-2.1;88
61571;BME280;47463;49.884;10.010;2023-03-12T05:10:01;101700;;;-2.1;89
61571;BME280;47463;49.884;10.010;2023-03-12T05:15:01;101700;;;-2.2;88
61571;BME280;47463;49.884;10.010;2023-03-12T05:20:01;101710;;;-2.1;88
61571;BME280;47463;49.884;10.010;2023-03-12T05:25:01;101710;;;-2.1;88
61571;BME280;47463;49.884;10.010;2023-03-12T05:30:01;101690;;;-2.1;88
61571;BME280;47463;49.884;10.010;2023-03-12T05:35:01;101690;;;-2.1;89
61571;BME280;47463;49.884;10.010;2023-03-12T05:40:01;101690;;;-2.1;89
61571;BME280;47463;49.884;10.010;2023-03-12T05:45:01;101710;;;-2.1;89
61571;BME280;47463;49.884;10.010;2023-03-12T05:50:01;101710;;;-2.1;89
61571;BME280;47463;49.884;10.010;2023-03-12T05:55:01;101700;;;-2.1;90
61571;BME280;47463;49.884;10.010;2023-03-12T06:00:01;101700;;;-2.1;90
61571;BME280;47463;49.884;10.010;2023-03-12T06:05:01;101700;;;-2;90
61571;BME280;47463;49.884;10.010;2023-03-12T06:10:01;101690;;;-1.9;90
61571;BME280;47463;49.884;10.010;2023-03-12T06:15:01;101690;;;-1.8;89
61571;BME280;47463;49.884;10.010;2023-03-12T06:20:01;101690;;;-1.8;88
61571;BME280;47463;49.884;10.010;2023-03-12T06:25:01;101690;;;-1.7;88
61571;BME280;47463;49.884;10.010;2023-03-12T06:30:01;101690;;;-1.6;89
61571;BME280;47463;49.884;10.010;2023-03-12T06:35:01;101680;;;-1.6;89
61571;BME280;47463;49.884;10.010;2023-03-12T06:40:01;101670;;;-1.6;89
61571;BME280;47463;49.884;10.010;2023-03-12T06:45:01;101690;;;-1.6;89
61571;BME280;47463;49.884;10.010;2023-03-12T06:50:01;101680;;;-1.5;88
61571;BME280;47463;49.884;10.010;2023-03-12T06:55:01;101680;;;-1.5;89
61571;BME280;47463;49.884;10.010;2023-03-12T07:00:01;101690;;;-1.4;88
61571;BME280;47463;49.884;10.010;2023-03-12T07:05:01;101700;;;-1.2;88
61571;BME280;47463;49.884;10.010;2023-03-12T07:10:01;101690;;;-1.1;87
61571;BME280;47463;49.884;10.010;2023-03-12T07:15:01;101670;;;-1;87
61571;BME280;47463;49.884;10.010;2023-03-12T07:20:01;101670;;;-0.9;87
61571;BME280;47463;49.884;10.010;2023-03-12T07:25:01;101680;;;-0.8;87
61571;BME280;47463;49.884;10.010;2023-03-12T07:30:01;101680;;;-0.6;86
61571;BME280;47463;49.884;10.010;2023-03-12T07:35:01;101680;;;-0.5;86
61571;BME280;47463;49.884;10.010;2023-03-12T07:40:01;101680;;;-0.6;85
61571;BME280;47463;49.884;10.010;2023-03-12T07:45:01;101680;;;-0.5;86
61571;BME280;47463;49.884;10.010;2023-03-12T07:50:01;101680;;;-0.5;86
61571;BME280;47463;49.884;10.010;2023-03-12T07:55:01;101680;;;-0.4;86
61571;BME280;47463;49.884;10.010;2023-03-12T08:00:01;101680;;;-0.5;86
61571;BME280;47463;49.884;10.010;2023-03-12T08:05:01;101680;;;-0.5;86
61571;BME280;47463;49.884;10.010;2023-03-12T08:10:01;101680;;;-0.1;86
61571;BME280;47463;49.884;10.010;2023-03-12T08:15:01;101680;;;0.1;85
61571;BME280;47463;49.884;10.010;2023-03-12T08:20:01;101680;;;0.3;85
61571;BME280;47463;49.884;10.010;2023-03-12T08:25:01;101680;;;0.3;84
61571;BME280;47463;49.884;10.010;2023-03-12T08:30:01;101670;;;0.5;84
61571;BME280;47463;49.884;10.010;2023-03-12T08:35:01;101670;;;0.8;83
61571;BME280;47463;49.884;10.010;2023-03-12T08:40:01;101680;;;0.9;82
61571;BME280;47463;49.884;10.010;2023-03-12T08:45:01;101680;;;1;82
61571;BME280;47463;49.884;10.010;2023-03-12T08:50:01;101660;;;1.1;82
61571;BME280;47463;49.884;10.010;2023-03-12T08:55:01;101660;;;1.4;82
61571;BME280;47463;49.884;10.010;2023-03-12T09:00:01;101660;;;1.3;82
61571;BME280;47463;49.884;10.010;2023-03-12T09:05:01;101660;;;1.3;83
61571;BME280;47463;49.884;10.010;2023-03-12T09:10:01;101660;;;1.4;81
61571;BME280;47463;49.884;10.010;2023-03-12T09:15:01;101650;;;1.7;81
61571;BME280;47463;49.884;10.010;2023-03-12T09:20:01;101650;;;1.8;81
61571;BME280;47463;49.884;10.010;2023-03-12T09:25:01;101650;;;1.9;80
61571;BME280;47463;49.884;10.010;2023-03-12T09:30:01;101650;;;1.8;79
61571;BME280;47463;49.884;10.010;2023-03-12T09:35:01;101640;;;1.8;79
61571;BME280;47463;49.884;10.010;2023-03-12T09:40:01;101640;;;2;80
61571;BME280;47463;49.884;10.010;2023-03-12T09:45:01;101630;;;1.9;79
61571;BME280;47463;49.884;10.010;2023-03-12T09:50:02;101630;;;1.8;82
61571;BME280;47463;49.884;10.010;2023-03-12T09:55:02;101630;;;1.6;84
61571;BME280;47463;49.884;10.010;2023-03-12T10:00:01;101650;;;1.4;87
61571;BME280;47463;49.884;10.010;2023-03-12T10:05:01;101640;;;1.2;89
61571;BME280;47463;49.884;10.010;2023-03-12T10:10:04;101640;;;1.1;91
61571;BME280;47463;49.884;10.010;2023-03-12T10:15:05;101640;;;1.1;92
61571;BME280;47463;49.884;10.010;2023-03-12T10:20:04;101630;;;1.1;92
61571;BME280;47463;49.884;10.010;2023-03-12T10:25:03;101650;;;1.1;93
61571;BME280;47463;49.884;10.010;2023-03-12T10:30:01;101640;;;1.1;94
61571;BME280;47463;49.884;10.010;2023-03-12T10:35:02;101630;;;1.2;95
61571;BME280;47463;49.884;10.010;2023-03-12T10:40:01;101640;;;1.2;94
61571;BME280;47463;49.884;10.010;2023-03-12T10:45:06;101630;;;1.3;95
61571;BME280;47463;49.884;10.010;2023-03-12T10:50:17;101630;;;1.4;95
61571;BME280;47463;49.884;10.010;2023-03-12T10:55:01;101620;;;1.4;95
61571;BME280;47463;49.884;10.010;2023-03-12T11:00:03;101620;;;1.5;96
61571;BME280;47463;49.884;10.010;2023-03-12T11:05:01;101610;;;1.6;95
61571;BME280;47463;49.884;10.010;2023-03-12T11:10:10;101630;;;1.7;96
61571;BME280;47463;49.884;10.010;2023-03-12T11:15:15;101630;;;1.8;96
61571;BME280;47463;49.884;10.010;2023-03-12T11:20:07;101640;;;1.9;96
61571;BME280;47463;49.884;10.010;2023-03-12T11:25:03;101640;;;1.9;96
61571;BME280;47463;49.884;10.010;2023-03-12T11:30:02;101640;;;2.1;96
61571;BME280;47463;49.884;10.010;2023-03-12T11:35:01;101620;;;2.2;96
61571;BME280;47463;49.884;10.010;2023-03-12T11:40:05;101610;;;2.3;96
61571;BME280;47463;49.884;10.010;2023-03-12T11:45:03;101610;;;2.4;96
61571;BME280;47463;49.884;10.010;2023-03-12T11:50:02;101600;;;2.4;96
61571;BME280;47463;49.884;10.010;2023-03-12T11:55:04;101600;;;2.6;97
61571;BME280;47463;49.884;10.010;2023-03-12T12:00:03;101580;;;2.8;97
61571;BME280;47463;49.884;10.010;2023-03-12T12:05:34;101570;;;3;97
61571;BME280;47463;49.884;10.010;2023-03-12T12:10:02;101570;;;3;96
61571;BME280;47463;49.884;10.010;2023-03-12T12:15:03;101560;;;3.2;96
61571;BME280;47463;49.884;10.010;2023-03-12T12:20:03;101560;;;3.3;96
61571;BME280;47463;49.884;10.010;2023-03-12T12:30:04;101560;;;3.7;96
61571;BME280;47463;49.884;10.010;2023-03-12T12:35:04;101540;;;3.9;96
61571;BME280;47463;49.884;10.010;2023-03-12T12:40:03;101520;;;4;95
61571;BME280;47463;49.884;10.010;2023-03-12T12:45:01;101510;;;4.2;96
61571;BME280;47463;49.884;10.010;2023-03-12T12:50:01;101500;;;4.3;95
61571;BME280;47463;49.884;10.010;2023-03-12T12:55:03;101490;;;4.5;95
61571;BME280;47463;49.884;10.010;2023-03-12T13:00:07;101500;;;4.6;95
61571;BME280;47463;49.884;10.010;2023-03-12T13:05:01;101500;;;5;95
61571;BME280;47463;49.884;10.010;2023-03-12T13:10:04;101500;;;5.1;95
61571;BME280;47463;49.884;10.010;2023-03-12T13:15:17;101490;;;5.4;94
61571;BME280;47463;49.884;10.010;2023-03-12T13:20:16;101490;;;5.5;94
61571;BME280;47463;49.884;10.010;2023-03-12T13:25:03;101490;;;5.5;93
61571;BME280;47463;49.884;10.010;2023-03-12T13:30:25;101490;;;5.6;93
61571;BME280;47463;49.884;10.010;2023-03-12T13:35:06;101500;;;5.6;93
61571;BME280;47463;49.884;10.010;2023-03-12T13:40:01;101500;;;5.7;93
61571;BME280;47463;49.884;10.010;2023-03-12T13:45:10;101500;;;5.8;93
61571;BME280;47463;49.884;10.010;2023-03-12T13:50:02;101500;;;5.9;92
61571;BME280;47463;49.884;10.010;2023-03-12T13:55:01;101500;;;6.1;92
61571;BME280;47463;49.884;10.010;2023-03-12T14:00:02;101500;;;6.3;92
61571;BME280;47463;49.884;10.010;2023-03-12T14:05:02;101510;;;6.5;91
61571;BME280;47463;49.884;10.010;2023-03-12T14:10:04;101510;;;6.8;91
61571;BME280;47463;49.884;10.010;2023-03-12T14:15:03;101490;;;7;90
61571;BME280;47463;49.884;10.010;2023-03-12T14:20:01;101500;;;7.2;90
61571;BME280;47463;49.884;10.010;2023-03-12T14:25:02;101510;;;7.4;88
61571;BME280;47463;49.884;10.010;2023-03-12T14:30:03;101510;;;7.5;88
61571;BME280;47463;49.884;10.010;2023-03-12T14:35:07;101520;;;7.7;87
61571;BME280;47463;49.884;10.010;2023-03-12T14:40:01;101530;;;7.7;87
61571;BME280;47463;49.884;10.010;2023-03-12T14:45:02;101510;;;7.9;86
61571;BME280;47463;49.884;10.010;2023-03-12T14:50:01;101490;;;7.9;86
61571;BME280;47463;49.884;10.010;2023-03-12T14:55:02;101480;;;8;86
61571;BME280;47463;49.884;10.010;2023-03-12T15:00:01;101480;;;8;86
61571;BME280;47463;49.884;10.010;2023-03-12T15:05:01;101490;;;8;86
61571;BME280;47463;49.884;10.010;2023-03-12T15:10:01;101470;;;8;85
61571;BME280;47463;49.884;10.010;2023-03-12T15:15:01;101460;;;8.1;86
61571;BME280;47463;49.884;10.010;2023-03-12T15:20:02;101450;;;8.1;86
61571;BME280;47463;49.884;10.010;2023-03-12T15:25:01;101450;;;8.2;85
61571;BME280;47463;49.884;10.010;2023-03-12T15:30:01;101450;;;8.2;85
61571;BME280;47463;49.884;10.010;2023-03-12T15:35:10;101450;;;8.2;85
61571;BME280;47463;49.884;10.010;2023-03-12T15:40:03;101450;;;8.2;85
61571;BME280;47463;49.884;10.010;2023-03-12T15:45:01;101460;;;8.2;85
61571;BME280;47463;49.884;10.010;2023-03-12T15:50:02;101470;;;8.2;85
61571;BME280;47463;49.884;10.010;2023-03-12T15:55:02;101470;;;8.2;85
61571;BME280;47463;49.884;10.010;2023-03-12T16:00:18;101470;;;8.3;85
61571;BME280;47463;49.884;10.010;2023-03-12T16:05:01;101470;;;8.3;85
61571;BME280;47463;49.884;10.010;2023-03-12T16:10:01;101470;;;8.3;84
61571;BME280;47463;49.884;10.010;2023-03-12T16:15:01;101450;;;8.2;85
61571;BME280;47463;49.884;10.010;2023-03-12T16:20:01;101450;;;8.1;85
61571;BME280;47463;49.884;10.010;2023-03-12T16:25:01;101450;;;7.9;87
61571;BME280;47463;49.884;10.010;2023-03-12T16:30:01;101450;;;7.9;87
61571;BME280;47463;49.884;10.010;2023-03-12T16:35:04;101440;;;7.8;87
61571;BME280;47463;49.884;10.010;2023-03-12T16:40:01;101460;;;7.8;87
61571;BME280;47463;49.884;10.010;2023-03-12T16:45:01;101460;;;8;86
61571;BME280;47463;49.884;10.010;2023-03-12T16:50:01;101460;;;8.3;84
61571;BME280;47463;49.884;10.010;2023-03-12T16:55:01;101460;;;8.4;84
61571;BME280;47463;49.884;10.010;2023-03-12T17:00:02;101460;;;8.5;83
61571;BME280;47463;49.884;10.010;2023-03-12T17:05:01;101460;;;8.4;84
61571;BME280;47463;49.884;10.010;2023-03-12T17:10:01;101460;;;8.5;84
61571;BME280;47463;49.884;10.010;2023-03-12T17:15:01;101460;;;8.4;84
61571;BME280;47463;49.884;10.010;2023-03-12T17:20:01;101480;;;8.5;84
61571;BME280;47463;49.884;10.010;2023-03-12T17:25:01;101480;;;8.4;85
61571;BME280;47463;49.884;10.010;2023-03-12T17:30:01;101470;;;8.5;85
61571;BME280;47463;49.884;10.010;2023-03-12T17:35:01;101480;;;8.5;85
61571;BME280;47463;49.884;10.010;2023-03-12T17:40:01;101470;;;8.5;85
61571;BME280;47463;49.884;10.010;2023-03-12T17:45:01;101470;;;8.4;85
61571;BME280;47463;49.884;10.010;2023-03-12T17:50:01;101470;;;8.4;85
61571;BME280;47463;49.884;10.010;2023-03-12T17:55:01;101480;;;8.4;85
61571;BME280;47463;49.884;10.010;2023-03-12T18:00:01;101480;;;8.4;85
61571;BME280;47463;49.884;10.010;2023-03-12T18:05:01;101490;;;8.5;84
61571;BME280;47463;49.884;10.010;2023-03-12T18:10:01;101490;;;8.5;84
61571;BME280;47463;49.884;10.010;2023-03-12T18:15:01;101490;;;8.4;84
61571;BME280;47463;49.884;10.010;2023-03-12T18:20:01;101510;;;8.4;84
61571;BME280;47463;49.884;10.010;2023-03-12T18:25:01;101510;;;8.4;84
61571;BME280;47463;49.884;10.010;2023-03-12T18:30:01;101500;;;8.6;83
61571;BME280;47463;49.884;10.010;2023-03-12T18:35:01;101500;;;8.6;82
61571;BME280;47463;49.884;10.010;2023-03-12T18:40:01;101520;;;8.7;82
61571;BME280;47463;49.884;10.010;2023-03-12T18:45:01;101530;;;8.7;82
61571;BME280;47463;49.884;10.010;2023-03-12T18:50:01;101520;;;8.7;82
61571;BME280;47463;49.884;10.010;2023-03-12T18:55:01;101510;;;8.6;82
61571;BME280;47463;49.884;10.010;2023-03-12T19:00:01;101510;;;8.6;82
61571;BME280;47463;49.884;10.010;2023-03-12T19:05:01;101510;;;8.7;81
61571;BME280;47463;49.884;10.010;2023-03-12T19:10:01;101500;;;8.8;81
61571;BME280;47463;49.884;10.010;2023-03-12T19:15:01;101500;;;8.9;80
61571;BME280;47463;49.884;10.010;2023-03-12T19:20:01;101500;;;8.8;80
61571;BME280;47463;49.884;10.010;2023-03-12T19:25:01;101500;;;8.9;79
61571;BME280;47463;49.884;10.010;2023-03-12T19:30:01;101500;;;8.7;80
61571;BME280;47463;49.884;10.010;2023-03-12T19:35:01;101500;;;8.6;80
61571;BME280;47463;49.884;10.010;2023-03-12T19:40:01;101500;;;8.7;79
61571;BME280;47463;49.884;10.010;2023-03-12T19:45:01;101500;;;8.7;79
61571;BME280;47463;49.884;10.010;2023-03-12T19:50:01;101500;;;8.7;79
61571;BME280;47463;49.884;10.010;2023-03-12T19:55:01;101500;;;8.6;79
61571;BME280;47463;49.884;10.010;2023-03-12T20:00:01;101510;;;8.6;79
61571;BME280;47463;49.884;10.010;2023-03-12T20:05:01;101520;;;8.9;78
61571;BME280;47463;49.884;10.010;2023-03-12T20:10:01;101520;;;8.7;79
61571;BME280;47463;49.884;10.010;2023-03-12T20:15:01;101520;;;8.6;79
61571;BME280;47463;49.884;10.010;2023-03-12T20:20:01;101530;;;8.6;79
61571;BME280;47463;49.884;10.010;2023-03-12T20:25:01;101530;;;8.5;80
61571;BME280;47463;49.884;10.010;2023-03-12T20:30:01;101530;;;8.2;81
61571;BME280;47463;49.884;10.010;2023-03-12T20:35:01;101530;;;8.2;81
61571;BME280;47463;49.884;10.010;2023-03-12T20:40:01;101540;;;8.1;81
61571;BME280;47463;49.884;10.010;2023-03-12T20:45:01;101530;;;8;81
61571;BME280;47463;49.884;10.010;2023-03-12T20:50:01;101530;;;8;81
61571;BME280;47463;49.884;10.010;2023-03-12T20:55:01;101530;;;8;81
61571;BME280;47463;49.884;10.010;2023-03-12T21:00:01;101530;;;7.9;81
61571;BME280;47463;49.884;10.010;2023-03-12T21:05:01;101530;;;8;81
61571;BME280;47463;49.884;10.010;2023-03-12T21:10:01;101500;;;8;80
61571;BME280;47463;49.884;10.010;2023-03-12T21:15:01;101510;;;8.1;80
61571;BME280;47463;49.884;10.010;2023-03-12T21:20:01;101510;;;8.1;80
61571;BME280;47463;49.884;10.010;2023-03-12T21:25:01;101510;;;8.1;80
61571;BME280;47463;49.884;10.010;2023-03-12T21:30:01;101500;;;8;80
61571;BME280;47463;49.884;10.010;2023-03-12T21:35:01;101500;;;8.1;79
61571;BME280;47463;49.884;10.010;2023-03-12T21:40:01;101490;;;8.1;79
61571;BME280;47463;49.884;10.010;2023-03-12T21:45:01;101500;;;8.1;79
61571;BME280;47463;49.884;10.010;2023-03-12T21:50:01;101510;;;8.1;79
61571;BME280;47463;49.884;10.010;2023-03-12T21:55:01;101500;;;8;79
61571;BME280;47463;49.884;10.010;2023-03-12T22:00:01;101500;;;8.2;79
61571;BME280;47463;49.884;10.010;2023-03-12T22:05:01;101500;;;8;79
61571;BME280;47463;49.884;10.010;2023-03-12T22:10:01;101500;;;8;80
61571;BME280;47463;49.884;10.010;2023-03-12T22:15:01;101490;;;8.1;80
61571;BME280;47463;49.884;10.010;2023-03-12T22:20:01;101500;;;8;80
61571;BME280;47463;49.884;10.010;2023-03-12T22:25:01;101500;;;7.9;80
61571;BME280;47463;49.884;10.010;2023-03-12T22:30:01;101480;;;7.8;81
61571;BME280;47463;49.884;10.010;2023-03-12T22:35:01;101480;;;7.4;83
61571;BME280;47463;49.884;10.010;2023-03-12T22:40:01;101470;;;7.4;83
61571;BME280;47463;49.884;10.010;2023-03-12T22:45:01;101460;;;7.3;83
61571;BME280;47463;49.884;10.010;2023-03-12T22:50:01;101460;;;7.5;83
61571;BME280;47463;49.884;10.010;2023-03-12T22:55:01;101460;;;7.5;83
61571;BME280;47463;49.884;10.010;2023-03-12T23:00:01;101460;;;7.6;82
61571;BME280;47463;49.884;10.010;2023-03-12T23:05:01;101450;;;7.6;83
61571;BME280;47463;49.884;10.010;2023-03-12T23:10:01;101440;;;7.5;83
61571;BME280;47463;49.884;10.010;2023-03-12T23:15:01;101430;;;7.4;84
61571;BME280;47463;49.884;10.010;2023-03-12T23:20:01;101420;;;7.4;84
61571;BME280;47463;49.884;10.010;2023-03-12T23:25:01;101420;;;7.5;84
61571;BME280;47463;49.884;10.010;2023-03-12T23:30:01;101410;;;7.5;84
61571;BME280;47463;49.884;10.010;2023-03-12T23:35:01;101410;;;7.5;84
61571;BME280;47463;49.884;10.010;2023-03-12T23:40:01;101400;;;7.6;84
61571;BME280;47463;49.884;10.010;2023-03-12T23:45:01;101400;;;7.4;84
61571;BME280;47463;49.884;10.010;2023-03-12T23:50:01;101380;;;7.6;84
61571;BME280;47463;49.884;10.010;2023-03-12T23:55:01;101380;;;7.6;84
